Time;durP1;ratioP1;P1;durP2;ratioP2;P2;SDS_P1;SDS_P2;PMS_P1;PMS_P2;Temp;Humidity;BMP_temperature;BMP_pressure;BME280_temperature;BME280_humidity;BME280_pressure;Samples;Min_cycle;Max_cycle;Signal;HPM_P1;HPM_P2
2022/10/07 00:08:16;;;;;;;5.00;1.80;;;;;;;12.32;100.00;98878.97;18239724;32;20117;-62
2022/10/07 00:18:18;;;;;;;4.45;1.50;;;;;;;12.30;100.00;98867.56;18239434;32;20062;-62
2022/10/07 00:28:22;;;;;;;3.37;1.45;;;;;;;12.28;100.00;98869.69;18166082;32;20071;-62
2022/10/07 00:38:25;;;;;;;2.62;1.30;;;;;;;12.18;100.00;98870.38;18166483;32;20063;-62
2022/10/07 00:48:31;;;;;;;5.35;1.40;;;;;;;12.05;100.00;98876.19;18166149;32;20417;-62
2022/10/07 00:58:36;;;;;;;3.20;1.85;;;;;;;11.87;100.00;98853.69;18176621;32;20054;-62
2022/10/07 01:08:39;;;;;;;3.83;1.67;;;;;;;11.62;100.00;98848.69;18237289;32;20084;-62
2022/10/07 01:19:13;;;;;;;3.35;1.48;;;;;;;11.36;100.00;98823.94;18223111;32;20058;-62
2022/10/07 01:29:28;;;;;;;2.75;1.20;;;;;;;11.19;100.00;98813.91;18218406;32;20063;-62
2022/10/07 01:39:37;;;;;;;6.55;3.80;;;;;;;11.20;100.00;98809.31;18235990;32;20091;-62
2022/10/07 01:49:39;;;;;;;11.15;4.40;;;;;;;11.07;100.00;98796.13;18235600;32;20055;-62
2022/10/07 02:00:04;;;;;;;4.37;3.47;;;;;;;10.90;100.00;98793.41;18234608;32;20073;-62
2022/10/07 02:10:27;;;;;;;4.10;2.22;;;;;;;10.76;100.00;98784.78;18233525;32;20069;-62
2022/10/07 02:20:34;;;;;;;3.65;1.80;;;;;;;10.70;100.00;98775.72;18234320;32;20370;-62
2022/10/07 02:30:39;;;;;;;2.57;1.43;;;;;;;10.66;100.00;98761.06;18233985;32;20055;-62
2022/10/07 02:41:08;;;;;;;2.90;1.40;;;;;;;10.76;100.00;98760.44;18160571;32;20074;-62
2022/10/07 02:51:17;;;;;;;3.62;2.17;;;;;;;10.89;100.00;98745.75;18159355;32;20469;-62
2022/10/07 03:01:28;;;;;;;4.97;1.80;;;;;;;10.96;100.00;98720.19;18160002;32;20089;-62
2022/10/07 03:11:30;;;;;;;1.85;0.95;;;;;;;11.02;100.00;98729.19;18221643;32;20143;-62
2022/10/07 03:21:32;;;;;;;2.90;1.33;;;;;;;11.10;100.00;98723.38;18159032;32;20504;-62
2022/10/07 03:31:35;;;;;;;3.25;1.37;;;;;;;11.16;100.00;98716.12;18158638;32;20063;-62
2022/10/07 03:41:37;;;;;;;2.60;1.20;;;;;;;11.20;100.00;98722.69;18158076;32;20050;-62
2022/10/07 03:51:40;;;;;;;6.82;1.62;;;;;;;11.22;100.00;98715.13;18214952;32;20090;-62
2022/10/07 04:01:42;;;;;;;2.92;1.10;;;;;;;11.28;100.00;98708.75;18231277;32;20103;-62
2022/10/07 04:11:44;;;;;;;5.78;1.20;;;;;;;11.33;100.00;98694.44;18238731;32;20055;-62
2022/10/07 04:21:47;;;;;;;2.85;1.40;;;;;;;11.38;100.00;98691.81;18239369;32;20069;-62
2022/10/07 04:31:49;;;;;;;2.83;1.23;;;;;;;11.42;100.00;98692.94;18239022;32;20091;-62
2022/10/07 04:41:53;;;;;;;1.80;1.40;;;;;;;11.45;100.00;98680.78;18238418;32;20050;-62
2022/10/07 04:51:55;;;;;;;2.57;1.30;;;;;;;11.43;100.00;98670.22;18237518;32;20077;-62
2022/10/07 05:01:58;;;;;;;1.52;1.02;;;;;;;11.45;100.00;98656.41;18237573;32;20135;-62
2022/10/07 05:12:00;;;;;;;1.92;1.23;;;;;;;11.41;100.00;98652.59;18236601;32;20079;-62
2022/10/07 05:22:03;;;;;;;2.62;1.37;;;;;;;11.31;100.00;98651.37;18236624;32;20066;-62
2022/10/07 05:32:05;;;;;;;4.60;1.60;;;;;;;11.13;100.00;98638.94;18235936;32;20054;-62
2022/10/07 05:42:08;;;;;;;2.37;1.40;;;;;;;10.97;100.00;98639.81;18235903;32;20073;-62
2022/10/07 05:52:10;;;;;;;2.75;1.58;;;;;;;10.82;100.00;98649.31;18162739;32;20383;-62
2022/10/07 06:02:14;;;;;;;3.10;1.70;;;;;;;10.63;100.00;98637.97;18038337;32;20386;-62
2022/10/07 06:22:39;;;;;;;6.28;2.25;;;;;;;10.43;100.00;98622.22;18088461;32;20102;-62
2022/10/07 06:32:41;;;;;;;4.72;2.12;;;;;;;10.41;100.00;98627.03;18208936;32;20364;-62
2022/10/07 06:42:43;;;;;;;3.80;2.23;;;;;;;10.50;100.00;98633.69;18160600;32;20458;-62
2022/10/07 06:52:46;;;;;;;3.43;1.97;;;;;;;10.66;100.00;98623.09;18160360;32;20092;-62
2022/10/07 07:02:48;;;;;;;3.15;1.73;;;;;;;10.79;100.00;98633.59;18035720;32;20072;-62
2022/10/07 07:12:53;;;;;;;2.40;1.52;;;;;;;11.05;100.00;98636.66;18084420;32;20403;-62
2022/10/07 07:22:55;;;;;;;3.20;1.40;;;;;;;11.36;100.00;98634.38;18084638;32;20075;-62
2022/10/07 07:33:04;;;;;;;2.80;1.75;;;;;;;11.69;100.00;98635.31;18104070;32;20072;-62
2022/10/07 07:43:07;;;;;;;2.87;1.65;;;;;;;12.01;100.00;98627.28;18240199;32;20054;-62
2022/10/07 07:53:10;;;;;;;3.90;1.80;;;;;;;12.44;100.00;98630.09;18239198;32;20054;-62
2022/10/07 08:03:12;;;;;;;4.95;2.65;;;;;;;12.99;100.00;98627.25;18238928;32;20102;-62
2022/10/07 08:13:15;;;;;;;5.78;3.45;;;;;;;13.49;100.00;98625.91;18238354;32;20073;-62
2022/10/07 08:23:18;;;;;;;5.60;4.12;;;;;;;13.96;100.00;98621.41;18239645;32;20104;-62
2022/10/07 08:33:21;;;;;;;5.05;3.20;;;;;;;14.38;100.00;98622.31;18238583;32;20095;-62
2022/10/07 08:43:24;;;;;;;5.97;3.97;;;;;;;14.74;100.00;98620.44;18237319;32;20050;-62
2022/10/07 08:53:33;;;;;;;7.37;4.57;;;;;;;15.10;100.00;98614.06;18236901;32;20133;-62
2022/10/07 09:03:50;;;;;;;5.82;3.97;;;;;;;15.41;100.00;98605.81;18237467;32;20043;-63
2022/10/07 09:14:03;;;;;;;8.00;3.97;;;;;;;15.77;100.00;98594.72;18235879;32;20135;-62
2022/10/07 09:24:39;;;;;;;8.17;4.17;;;;;;;16.12;100.00;98576.53;18236549;32;20070;-63
2022/10/07 09:34:43;;;;;;;5.90;4.40;;;;;;;16.41;100.00;98565.66;18299034;32;20155;-63
2022/10/07 09:45:00;;;;;;;7.68;4.47;;;;;;;16.66;100.00;98557.53;18285485;32;20131;-63
2022/10/07 09:55:37;;;;;;;4.93;4.00;;;;;;;16.87;99.88;98545.28;18298134;32;20070;-63
2022/10/07 10:05:51;;;;;;;5.65;3.75;;;;;;;17.05;99.38;98542.94;18270744;32;20063;-63
2022/10/07 10:15:54;;;;;;;7.20;4.27;;;;;;;17.17;95.45;98540.63;18234817;32;20106;-63
2022/10/07 10:26:24;;;;;;;6.10;4.90;;;;;;;17.31;94.35;98531.69;18148975;32;20091;-63
2022/10/07 10:36:41;;;;;;;5.40;3.60;;;;;;;17.46;91.81;98526.03;18149686;32;20492;-63
2022/10/07 10:46:57;;;;;;;6.30;4.00;;;;;;;17.65;89.93;98514.28;18160813;32;20078;-63
2022/10/07 10:57:38;;;;;;;6.78;3.83;;;;;;;17.83;90.25;98497.03;18165001;32;20361;-63
2022/10/07 11:07:49;;;;;;;6.12;4.15;;;;;;;17.92;90.29;98486.25;18232158;32;20069;-63
2022/10/07 11:17:58;;;;;;;4.03;3.40;;;;;;;18.17;89.10;98487.78;18231294;32;20374;-63
2022/10/07 11:28:13;;;;;;;4.60;3.28;;;;;;;18.44;87.36;98467.81;18229808;32;20043;-63
2022/10/07 11:38:28;;;;;;;5.35;3.37;;;;;;;18.33;86.90;98457.38;18230793;32;20447;-62
2022/10/07 11:48:42;;;;;;;4.53;3.12;;;;;;;18.70;88.45;98439.94;18230171;32;20106;-63
2022/10/07 11:58:55;;;;;;;5.05;3.55;;;;;;;19.63;87.18;98427.78;18229857;32;20082;-63
2022/10/07 12:09:17;;;;;;;6.07;3.87;;;;;;;20.07;78.82;98413.59;18229576;32;20487;-64
2022/10/07 12:19:21;;;;;;;7.03;3.10;;;;;;;20.42;82.25;98402.75;18229023;32;20054;-63
2022/10/07 12:29:32;;;;;;;4.70;3.50;;;;;;;20.89;81.84;98386.59;18235753;32;20051;-63
2022/10/07 12:39:36;;;;;;;5.53;3.25;;;;;;;21.11;77.75;98365.62;18104655;32;20071;-63
2022/10/07 12:49:41;;;;;;;4.75;2.85;;;;;;;21.32;74.22;98352.84;18104199;32;20071;-63
2022/10/07 13:00:06;;;;;;;4.68;3.60;;;;;;;21.05;76.05;98337.47;18103533;32;20175;-63
2022/10/07 13:10:39;;;;;;;4.10;3.10;;;;;;;20.73;71.12;98320.28;18214768;32;20095;-63
2022/10/07 13:20:54;;;;;;;4.07;2.75;;;;;;;20.56;76.40;98315.56;18164845;32;20087;-62
2022/10/07 13:31:30;;;;;;;4.82;2.80;;;;;;;20.26;76.95;98293.34;18151994;32;20084;-63
2022/10/07 13:41:35;;;;;;;4.78;3.42;;;;;;;20.04;78.48;98277.78;18163541;32;20093;-63
2022/10/07 13:51:40;;;;;;;4.32;3.37;;;;;;;19.84;75.83;98276.38;18166804;32;20055;-63
2022/10/07 14:01:55;;;;;;;4.40;3.15;;;;;;;19.78;75.43;98261.19;18235182;32;20055;-63
2022/10/07 14:12:14;;;;;;;3.45;2.40;;;;;;;19.70;78.96;98253.72;18162825;32;20066;-63
2022/10/07 14:22:25;;;;;;;3.35;2.60;;;;;;;19.48;82.45;98241.66;18149748;32;20086;-63
2022/10/07 14:42:53;;;;;;;3.30;2.42;;;;;;;19.22;87.75;98212.16;18223524;32;20137;-62
2022/10/07 14:52:57;;;;;;;2.47;2.00;;;;;;;19.26;90.16;98204.13;18232211;32;20073;-63
2022/10/07 15:03:01;;;;;;;3.30;2.58;;;;;;;19.47;91.52;98198.91;18231186;32;20446;-63
2022/10/07 15:13:04;;;;;;;3.58;2.70;;;;;;;19.39;90.67;98178.56;18231691;32;20491;-63
2022/10/07 15:23:14;;;;;;;3.47;2.03;;;;;;;19.29;92.06;98171.41;18231658;32;20058;-63
2022/10/07 15:33:17;;;;;;;2.47;2.28;;;;;;;19.26;93.59;98163.00;18230020;32;20054;-62
2022/10/07 15:43:19;;;;;;;3.20;2.17;;;;;;;19.40;95.83;98160.97;18230489;32;20073;-63
2022/10/07 15:53:23;;;;;;;4.37;2.60;;;;;;;19.27;96.28;98145.44;18228725;32;20051;-63
2022/10/07 16:03:27;;;;;;;4.03;2.78;;;;;;;18.77;97.59;98149.16;18237958;32;20103;-63
2022/10/07 16:13:30;;;;;;;4.05;2.87;;;;;;;18.36;98.80;98133.72;18239951;32;20113;-62
2022/10/07 16:23:33;;;;;;;4.07;2.70;;;;;;;18.02;100.00;98135.03;18239355;32;20050;-62
2022/10/07 16:33:36;;;;;;;;;;;;;;;17.70;100.00;98134.84;18239316;32;20054;-63
2022/10/07 16:43:39;;;;;;;3.28;2.72;;;;;;;17.39;100.00;98135.47;18238743;32;20326;-62
2022/10/07 16:53:43;;;;;;;4.10;3.10;;;;;;;17.13;100.00;98143.34;18236631;32;20442;-63
2022/10/07 17:03:48;;;;;;;4.53;2.95;;;;;;;16.88;100.00;98139.94;18165522;32;20145;-63
2022/10/07 17:13:51;;;;;;;5.78;3.22;;;;;;;16.69;100.00;98144.59;18152449;32;20111;-63
2022/10/07 17:23:57;;;;;;;6.72;2.80;;;;;;;16.44;100.00;98149.37;18164641;32;20112;-62
2022/10/07 17:34:02;;;;;;;6.90;3.97;;;;;;;16.17;100.00;98150.88;18222395;32;20070;-62
2022/10/07 17:44:10;;;;;;;9.50;5.68;;;;;;;15.89;100.00;98144.44;18235899;32;20133;-63
2022/10/07 17:54:13;;;;;;;10.18;5.43;;;;;;;15.58;100.00;98145.59;18234337;32;20066;-62
2022/10/07 18:04:17;;;;;;;7.33;4.63;;;;;;;15.33;100.00;98140.44;18234053;32;20068;-62
2022/10/07 18:24:55;;;;;;;7.30;4.95;;;;;;;15.02;100.00;98140.75;18232429;32;20162;-62
2022/10/07 18:34:58;;;;;;;9.20;5.28;;;;;;;14.89;100.00;98148.50;18233740;32;20490;-62
2022/10/07 18:45:00;;;;;;;7.82;5.05;;;;;;;14.82;100.00;98141.78;18233244;32;20067;-63
2022/10/07 18:55:04;;;;;;;7.28;5.60;;;;;;;14.74;100.00;98149.47;18232503;32;20065;-63
2022/10/07 19:05:06;;;;;;;9.00;5.13;;;;;;;14.73;100.00;98149.72;18231052;32;20054;-62
2022/10/07 19:15:09;;;;;;;10.48;5.57;;;;;;;14.67;100.00;98164.50;18159445;32;20085;-62
2022/10/07 19:35:33;;;;;;;7.05;4.78;;;;;;;14.47;100.00;98173.59;18164599;32;20066;-63
2022/10/07 19:45:38;;;;;;;6.60;4.30;;;;;;;14.40;100.00;98187.50;18228246;32;20092;-62
2022/10/07 19:55:44;;;;;;;7.18;4.68;;;;;;;14.34;100.00;98184.00;18240549;32;20091;-62
2022/10/07 20:05:46;;;;;;;6.60;4.65;;;;;;;14.27;100.00;98183.53;18240355;32;20438;-63
2022/10/07 20:15:48;;;;;;;4.60;3.67;;;;;;;14.19;100.00;98186.84;18239390;32;20439;-63
2022/10/07 20:25:51;;;;;;;5.18;4.10;;;;;;;14.11;100.00;98195.59;18105242;32;20063;-62
2022/10/07 20:35:53;;;;;;;7.80;4.35;;;;;;;14.01;100.00;98186.37;18042985;32;20079;-63
2022/10/07 20:45:56;;;;;;;5.20;3.90;;;;;;;13.92;100.00;98198.12;18041532;32;20071;-63
2022/10/07 20:56:02;;;;;;;6.55;4.10;;;;;;;13.80;100.00;98203.88;18091045;32;20399;-62
2022/10/07 21:06:05;;;;;;;9.30;3.53;;;;;;;13.71;100.00;98203.63;18123867;32;20408;-62
2022/10/07 21:16:08;;;;;;;5.72;4.20;;;;;;;13.63;100.00;98194.16;18237164;32;20092;-62
2022/10/07 21:26:11;;;;;;;4.85;3.95;;;;;;;13.54;100.00;98198.53;18237040;32;20066;-62
2022/10/07 21:36:19;;;;;;;7.43;4.53;;;;;;;13.48;100.00;98191.47;18236304;32;20465;-63
2022/10/07 21:46:28;;;;;;;6.93;4.57;;;;;;;13.42;100.00;98187.97;18235785;32;20425;-62
2022/10/07 21:56:33;;;;;;;7.60;4.97;;;;;;;13.34;100.00;98192.03;18234109;32;20042;-63
2022/10/07 22:16:56;;;;;;;5.45;4.50;;;;;;;13.25;100.00;98185.53;18234776;32;20051;-62
2022/10/07 22:27:00;;;;;;;6.15;4.57;;;;;;;13.21;100.00;98171.69;18233057;32;20105;-63
2022/10/07 22:37:03;;;;;;;7.10;4.28;;;;;;;13.14;100.00;98171.19;18232768;32;20046;-62
2022/10/07 22:47:05;;;;;;;4.60;4.07;;;;;;;12.99;100.00;98171.19;18233073;32;20388;-62
2022/10/07 22:57:07;;;;;;;5.35;3.83;;;;;;;12.87;100.00;98166.06;18160124;32;20100;-63
2022/10/07 23:07:10;;;;;;;5.82;4.30;;;;;;;12.80;100.00;98163.59;18159328;32;20058;-63
2022/10/07 23:17:12;;;;;;;5.93;3.78;;;;;;;12.73;100.00;98156.81;18159919;32;20133;-62
2022/10/07 23:27:14;;;;;;;5.37;4.20;;;;;;;12.70;100.00;98147.31;18215970;32;20094;-62
2022/10/07 23:37:17;;;;;;;6.97;3.78;;;;;;;12.59;100.00;98146.50;18231444;32;20137;-63
2022/10/07 23:47:21;;;;;;;4.28;3.53;;;;;;;12.57;100.00;98137.03;18230879;32;20085;-62
2022/10/07 23:57:23;;;;;;;6.97;4.78;;;;;;;12.57;100.00;98132.41;18230052;32;20085;-62
